Forum Crazy Orc - Centre de statistiques

Statistiques générales

Total des membres:
913
Total des messages:
95 752
Total des sujets:
3 893
Total des catégories:
4
Membres en ligne:
64
Connexions simultanées:
808 - 21 janvier 2020 à 20:55:59
En ligne aujourd'hui:
87
Total des pages vues:
29 606 647
Moyenne des inscriptions par jour:
0,25
Moyenne des messages par jour:
25,92
Moyenne des sujets par jour:
1,13
Total des sections:
40
Dernier membre:
Haendarien
Moyenne d'utilisateurs connectés par jour:
46,84
Ratio hommes/femmes:
7.2:1
Pages vues en moyenne par jour:
5 499,01

Top lanceurs de sujets

nunch
600
ManuDevil
287
GroumpH
246
Morithil
209
Scratchy
132
MAO
110
LeDupontesque
105
jules
99
snake
92
CCCP
84

Temps de connexion cumulé

Mandy
133j 19h 59m
GroumpH
112j 9h 9m
CCCP
84j 20h 51m
Nukeflow
73j 8h 19m
ManuDevil
67j 4h 18m
Felipe
61j 12h 19m
dao
56j 17h 52m
nunch
49j 24m
Rh
42j 23h 32m
Patate
40j 18h 32m

Historique du forum (basé sur l'heure interne du forum)

Résumé annuel Nouveaux sujets Nouveaux messages Nouveaux membres Connexions simultanées Pages vues
* 2021 121 720 53 338 3 729 436
Décembre 2021 0 1 0 87 13 978
Novembre 2021 13 99 4 153 262 314
2021-11-01 0 1 0 104 6 791
2021-11-02 1 4 0 86 7 303
2021-11-03 3 9 1 90 4 912
2021-11-04 1 2 0 113 8 815
2021-11-05 1 12 1 82 8 224
2021-11-06 0 6 0 79 7 367
2021-11-07 0 6 0 70 7 525
2021-11-08 0 0 0 84 5 740
2021-11-09 0 2 0 81 6 641
2021-11-10 0 2 0 115 6 991
2021-11-11 2 8 0 122 9 859
2021-11-12 0 3 0 125 14 014
2021-11-13 0 1 1 135 14 443
2021-11-14 0 3 0 153 13 594
2021-11-15 0 1 0 139 14 330
2021-11-16 0 2 1 132 10 656
2021-11-17 0 3 0 88 7 851
2021-11-18 0 1 0 88 9 836
2021-11-19 0 3 0 75 12 547
2021-11-20 0 4 0 72 7 556
2021-11-21 0 0 0 61 5 092
2021-11-22 4 7 0 67 7 221
2021-11-23 1 4 0 75 7 572
2021-11-24 0 3 0 71 7 662
2021-11-25 0 0 0 80 5 738
2021-11-26 0 1 0 75 6 288
2021-11-27 0 6 0 77 8 820
2021-11-28 0 2 0 83 6 614
2021-11-29 0 2 0 74 11 072
2021-11-30 0 1 0 122 11 240
Octobre 2021 20 208 15 159 298 103
2021-10-01 0 1 0 56 6 171
2021-10-02 0 9 1 86 9 181
2021-10-03 1 4 1 72 8 747
2021-10-04 0 3 0 68 6 532
2021-10-05 2 14 1 76 7 922
2021-10-06 0 3 0 125 9 753
2021-10-07 0 3 0 120 9 963
2021-10-08 1 6 1 99 7 587
2021-10-09 1 15 2 86 5 434
2021-10-10 0 4 0 93 8 119
2021-10-11 0 7 1 86 7 114
2021-10-12 1 7 0 85 11 069
2021-10-13 2 10 2 130 12 013
2021-10-14 0 3 0 119 11 498
2021-10-15 1 6 1 136 11 138
2021-10-16 0 11 0 159 11 492
2021-10-17 0 5 0 139 10 881
2021-10-18 0 3 0 130 12 452
2021-10-19 0 5 0 104 9 710
2021-10-20 3 9 0 85 9 720
2021-10-21 0 0 0 111 34 450
2021-10-22 2 11 1 69 8 430
2021-10-23 1 7 1 87 5 533
2021-10-24 1 13 1 74 9 651
2021-10-25 0 11 0 89 7 704
2021-10-26 3 9 0 83 9 231
2021-10-27 0 4 0 79 7 575
2021-10-28 1 7 1 76 7 069
2021-10-29 0 4 0 75 6 460
2021-10-30 0 7 1 88 7 194
2021-10-31 0 7 0 98 8 310
Septembre 2021 24 171 10 280 285 455
Août 2021 11 33 7 73 231 609
Juillet 2021 6 8 2 81 305 173
Juin 2021 17 31 2 135 311 168
2021-06-01 6 7 0 65 11 550
2021-06-02 0 0 0 77 12 253
2021-06-03 0 1 0 103 12 092
2021-06-04 0 0 0 93 8 171
2021-06-05 0 0 0 104 7 555
2021-06-06 0 0 0 95 7 530
2021-06-07 0 0 0 79 8 779
2021-06-08 1 3 0 79 10 509
2021-06-09 0 1 0 90 8 325
2021-06-10 0 0 0 88 8 468
2021-06-11 0 0 0 93 9 960
2021-06-12 0 1 0 92 10 963
2021-06-13 1 1 1 86 7 407
2021-06-14 0 0 0 105 6 206
2021-06-15 0 0 0 82 32 410
2021-06-16 4 6 0 83 12 753
2021-06-17 0 0 0 96 11 769
2021-06-18 0 2 0 101 7 377
2021-06-19 0 1 0 135 12 899
2021-06-20 0 0 0 131 10 996
2021-06-21 3 4 1 131 11 219
2021-06-22 0 0 0 101 8 997
2021-06-23 0 1 0 93 7 594
2021-06-24 0 0 0 103 9 103
2021-06-25 0 0 0 80 9 706
2021-06-26 0 0 0 79 9 521
2021-06-27 0 0 0 84 11 194
2021-06-28 0 0 0 75 8 473
2021-06-29 2 2 0 83 8 668
2021-06-30 0 1 0 71 8 721
Mai 2021 3 31 4 268 597 777
2021-05-01 0 0 0 119 39 331
2021-05-02 0 0 0 106 59 354
2021-05-03 0 9 1 101 44 504
2021-05-04 0 2 0 125 12 453
2021-05-05 1 2 0 100 11 360
2021-05-06 0 0 0 101 9 692
2021-05-07 0 2 0 106 8 406
2021-05-08 0 0 0 99 174 998
2021-05-09 0 0 1 97 28 918
2021-05-10 1 2 0 97 8 620
2021-05-11 0 1 0 89 11 124
2021-05-12 0 0 0 83 7 881
2021-05-13 0 0 0 118 7 343
2021-05-14 0 2 0 93 7 444
2021-05-15 0 0 0 108 8 389
2021-05-16 0 0 0 88 7 431
2021-05-17 0 0 0 89 8 744
2021-05-18 0 1 0 92 6 838
2021-05-19 0 1 0 268 11 518
2021-05-20 0 0 0 98 21 067
2021-05-21 1 1 0 152 11 521
2021-05-22 0 0 0 146 11 070
2021-05-23 0 0 0 124 9 498
2021-05-24 0 1 0 109 10 311
2021-05-25 0 5 1 112 11 048
2021-05-26 0 0 0 115 7 597
2021-05-27 0 0 0 100 8 270
2021-05-28 0 0 0 70 10 782
2021-05-29 0 1 0 69 7 978
2021-05-30 0 0 1 67 7 768
2021-05-31 0 1 0 47 6 519
Avril 2021 10 51 6 287 308 355
Mars 2021 7 24 1 308 444 900
2021-03-01 0 0 0 72 8 645
2021-03-02 1 2 0 62 7 066
2021-03-03 0 1 0 58 5 404
2021-03-04 0 0 1 61 5 201
2021-03-05 0 0 0 63 8 432
2021-03-06 0 0 0 60 4 862
2021-03-07 0 1 0 50 4 615
2021-03-08 0 0 0 55 4 461
2021-03-09 0 0 0 58 6 240
2021-03-10 0 0 0 65 8 568
2021-03-11 1 3 0 62 4 993
2021-03-12 0 1 0 55 5 378
2021-03-13 0 0 0 60 4 371
2021-03-14 0 1 0 65 5 377
2021-03-15 1 1 0 69 7 164
2021-03-16 0 1 0 98 8 406
2021-03-17 1 6 0 308 16 132
2021-03-18 0 0 0 75 162 827
2021-03-19 0 0 0 83 38 605
2021-03-20 0 2 0 68 10 275
2021-03-21 0 0 0 72 11 763
2021-03-22 0 0 0 54 8 930
2021-03-23 0 0 0 94 11 374
2021-03-24 0 0 0 97 12 163
2021-03-25 0 0 0 117 11 569
2021-03-26 0 1 0 127 11 884
2021-03-27 0 1 0 104 7 707
2021-03-28 0 0 0 89 8 951
2021-03-29 0 0 0 77 10 399
2021-03-30 0 0 0 73 11 056
2021-03-31 3 3 0 77 12 082
Février 2021 5 29 2 338 223 056
Janvier 2021 5 34 0 322 447 548
2021-01-01 0 0 0 65 8 853
2021-01-02 0 0 0 61 7 510
2021-01-03 0 0 0 56 8 223
2021-01-04 2 2 0 67 8 142
2021-01-05 0 3 0 56 8 281
2021-01-06 0 4 0 55 5 830
2021-01-07 0 2 0 55 4 092
2021-01-08 0 2 0 53 3 871
2021-01-09 0 0 0 70 5 919
2021-01-10 0 0 0 78 9 200
2021-01-11 1 2 0 66 7 730
2021-01-12 0 1 0 71 7 978
2021-01-13 0 1 0 64 8 287
2021-01-14 0 2 0 80 7 890
2021-01-15 0 0 0 85 9 193
2021-01-16 0 0 0 83 10 085
2021-01-17 0 3 0 81 9 818
2021-01-18 0 5 0 82 10 941
2021-01-19 1 1 0 86 9 009
2021-01-20 0 2 0 322 13 536
2021-01-21 0 1 0 81 24 497
2021-01-22 0 0 0 79 141 457
2021-01-23 0 0 0 85 10 393
2021-01-24 0 0 0 84 11 242
2021-01-25 1 1 0 80 10 151
2021-01-26 0 0 0 93 10 012
2021-01-27 0 1 0 88 10 831
2021-01-28 0 0 0 87 11 541
2021-01-29 0 1 0 81 9 358
2021-01-30 0 0 0 72 23 925
2021-01-31 0 0 0 67 19 753
* 2020 206 1 716 105 808 4 713 463
Décembre 2020 6 38 2 320 310 487
Novembre 2020 12 97 3 352 464 426
Octobre 2020 21 169 7 346 497 422
2020-10-01 4 11 1 121 13 231
2020-10-02 0 15 0 130 15 235
2020-10-03 0 0 1 112 12 703
2020-10-04 3 10 1 119 108 419
2020-10-05 3 15 1 92 60 488
2020-10-06 0 16 0 118 11 489
2020-10-07 1 8 1 121 10 905
2020-10-08 0 9 0 143 14 006
2020-10-09 0 2 0 97 9 716
2020-10-10 1 4 1 94 11 237
2020-10-11 0 2 0 88 10 226
2020-10-12 3 7 0 85 9 874
2020-10-13 1 9 1 89 12 163
2020-10-14 0 11 0 346 16 344
2020-10-15 0 4 0 86 10 037
2020-10-16 0 0 0 90 9 449
2020-10-17 0 0 0 91 10 244
2020-10-18 0 9 0 78 8 796
2020-10-19 1 3 0 75 7 818
2020-10-20 3 9 0 88 7 872
2020-10-21 0 5 0 85 8 220
2020-10-22 0 10 0 87 10 088
2020-10-23 0 2 0 104 13 389
2020-10-24 0 0 0 95 12 852
2020-10-25 0 2 0 96 11 374
2020-10-26 0 1 0 98 10 283
2020-10-27 1 2 0 105 7 650
2020-10-28 0 2 0 107 10 881
2020-10-29 0 0 0 112 13 782
2020-10-30 0 1 0 114 15 295
2020-10-31 0 0 0 111 13 356
Septembre 2020 30 356 15 133 325 183
2020-09-01 1 11 0 132 11 858
2020-09-02 0 7 0 119 11 233
2020-09-03 0 3 0 133 12 311
2020-09-04 0 1 0 107 9 419
2020-09-05 0 5 0 98 9 623
2020-09-06 0 2 0 91 8 360
2020-09-07 2 5 0 89 7 613
2020-09-08 3 18 1 94 7 993
2020-09-09 0 5 0 78 8 983
2020-09-10 2 17 3 79 8 902
2020-09-11 0 17 0 75 7 934
2020-09-12 0 7 1 79 9 406
2020-09-13 2 22 1 85 8 825
2020-09-14 2 20 0 96 9 426
2020-09-15 1 11 1 77 9 576
2020-09-16 2 8 0 91 13 248
2020-09-17 2 16 1 82 11 164
2020-09-18 1 20 1 84 10 275
2020-09-19 1 12 2 84 11 478
2020-09-20 1 7 0 79 12 324
2020-09-21 4 36 2 87 11 686
2020-09-22 1 22 0 87 12 418
2020-09-23 1 18 1 90 14 222
2020-09-24 0 10 0 77 12 651
2020-09-25 0 12 0 83 13 598
2020-09-26 0 7 0 93 10 763
2020-09-27 0 2 0 99 9 820
2020-09-28 2 17 0 117 11 475
2020-09-29 1 8 1 116 13 668
2020-09-30 1 10 0 123 14 931
Août 2020 16 147 7 163 471 897
Juillet 2020 16 77 2 100 345 760
Juin 2020 17 60 5 127 452 817
2020-06-01 0 1 0 97 7 843
2020-06-02 7 8 0 99 6 624
2020-06-03 0 0 0 116 9 483
2020-06-04 0 0 0 127 10 949
2020-06-05 0 0 0 54 8 472
2020-06-06 0 0 0 60 11 941
2020-06-07 0 3 0 60 62 107
2020-06-08 0 1 1 59 116 791
2020-06-09 0 1 0 67 15 021
2020-06-10 2 6 0 51 11 623
2020-06-11 0 0 0 50 8 819
2020-06-12 0 0 0 54 9 812
2020-06-13 0 0 1 57 9 517
2020-06-14 0 1 0 54 10 890
2020-06-15 2 5 0 50 11 230
2020-06-16 0 3 0 66 11 587
2020-06-17 0 0 1 53 7 877
2020-06-18 0 0 0 53 7 889
2020-06-19 0 0 0 47 8 061
2020-06-20 0 1 0 49 10 663
2020-06-21 0 0 0 49 8 505
2020-06-22 0 2 0 51 8 058
2020-06-23 0 1 0 50 9 272
2020-06-24 1 7 1 59 9 508
2020-06-25 0 4 0 53 9 909
2020-06-26 0 1 0 53 10 161
2020-06-27 0 0 1 58 11 373
2020-06-28 0 0 0 63 8 637
2020-06-29 5 12 0 67 8 575
2020-06-30 0 3 0 56 11 620
Mai 2020 7 22 3 295 321 652
2020-05-01 0 0 1 256 14 023
2020-05-02 1 1 0 203 11 018
2020-05-03 0 0 0 196 11 059
2020-05-04 0 1 0 219 12 362
2020-05-05 0 0 0 118 9 025
2020-05-06 0 0 1 207 9 203
2020-05-07 0 4 0 226 9 310
2020-05-08 0 0 0 247 12 323
2020-05-09 0 2 0 241 11 845
2020-05-10 0 4 0 245 13 234
2020-05-11 0 1 0 238 7 557
2020-05-12 0 1 0 241 9 777
2020-05-13 0 1 0 295 11 812
2020-05-14 6 6 0 249 13 287
2020-05-15 0 0 0 226 13 447
2020-05-16 0 0 0 172 12 505
2020-05-17 0 0 0 120 10 079
2020-05-18 0 0 0 130 10 552
2020-05-19 0 0 0 131 10 117
2020-05-20 0 1 0 107 7 233
2020-05-21 0 0 1 52 7 639
2020-05-22 0 0 0 51 9 754
2020-05-23 0 0 0 57 7 435
2020-05-24 0 0 0 57 7 298
2020-05-25 0 0 0 74 5 034
2020-05-26 0 0 0 82 7 744
2020-05-27 0 0 0 107 11 791
2020-05-28 0 0 0 100 9 031
2020-05-29 0 0 0 104 9 467
2020-05-30 0 0 0 108 15 345
2020-05-31 0 0 0 116 11 346
Avril 2020 10 47 1 189 300 030
Mars 2020 24 253 3 199 467 854
2020-03-01 0 7 0 104 10 346
2020-03-02 0 5 0 126 6 471
2020-03-03 3 17 1 107 4 913
2020-03-04 0 10 0 116 5 122
2020-03-05 1 12 0 143 8 779
2020-03-06 0 9 0 144 11 988
2020-03-07 0 2 0 123 11 124
2020-03-08 0 5 0 122 13 134
2020-03-09 0 10 0 117 13 459
2020-03-10 2 5 0 114 11 164
2020-03-11 0 4 0 105 8 274
2020-03-12 0 10 0 199 11 093
2020-03-13 0 9 0 186 12 284
2020-03-14 1 11 0 189 12 386
2020-03-15 1 12 1 189 11 665
2020-03-16 1 3 0 173 10 318
2020-03-17 0 8 0 116 9 643
2020-03-18 0 2 0 107 8 287
2020-03-19 0 4 0 105 10 639
2020-03-20 0 0 0 116 10 883
2020-03-21 0 4 0 114 10 354
2020-03-22 0 0 0 119 9 230
2020-03-23 3 9 0 112 6 679
2020-03-24 0 7 0 113 47 441
2020-03-25 0 10 0 107 140 101
2020-03-26 5 9 0 119 6 876
2020-03-27 1 6 0 154 6 818
2020-03-28 1 16 0 114 7 190
2020-03-29 2 20 0 105 6 840
2020-03-30 1 13 0 121 11 552
2020-03-31 2 14 1 117 12 801
Février 2020 18 171 9 323 281 798
2020-02-01 0 6 1 110 22 857
2020-02-02 0 4 0 113 19 748
2020-02-03 3 6 2 225 8 437
2020-02-04 0 4 0 323 5 481
2020-02-05 0 1 1 124 6 151
2020-02-06 0 4 0 123 9 304
2020-02-07 0 5 0 154 11 432
2020-02-08 0 4 0 133 9 152
2020-02-09 0 3 0 131 10 284
2020-02-10 0 2 0 110 5 432
2020-02-11 3 10 0 135 4 471
2020-02-12 0 5 0 126 6 869
2020-02-13 0 5 0 128 11 009
2020-02-14 1 4 0 156 5 546
2020-02-15 0 2 0 171 6 296
2020-02-16 0 5 1 133 5 755
2020-02-17 4 21 1 132 8 743
2020-02-18 0 18 0 138 7 508
2020-02-19 0 2 0 137 7 400
2020-02-20 0 12 0 143 8 914
2020-02-21 1 9 1 154 8 884
2020-02-22 0 15 0 167 11 618
2020-02-23 0 1 0 164 12 863
2020-02-24 5 10 0 167 13 726
2020-02-25 0 1 0 196 13 396
2020-02-26 1 4 0 188 11 554
2020-02-27 0 5 1 132 9 231
2020-02-28 0 3 0 145 10 882
2020-02-29 0 0 1 132 8 855
Janvier 2020 29 279 48 808 474 137
* 2019 246 3 411 313 446 3 308 531
Décembre 2019 18 159 26 446 351 248
Novembre 2019 16 245 33 325 524 135
Octobre 2019 24 272 59 121 189 762
Septembre 2019 25 386 54 141 376 708
2019-09-01 1 9 2 105 6 240
2019-09-02 2 23 0 99 4 858
2019-09-03 0 2 3 113 5 936
2019-09-04 1 23 3 106 6 478
2019-09-05 1 13 2 101 4 820
2019-09-06 0 19 1 107 6 729
2019-09-07 1 7 1 101 5 312
2019-09-08 2 30 3 112 7 337
2019-09-09 0 11 1 102 5 572
2019-09-10 0 11 0 100 7 902
2019-09-11 0 19 4 106 7 070
2019-09-12 0 9 1 93 5 907
2019-09-13 0 17 1 104 5 766
2019-09-14 1 20 1 106 8 380
2019-09-15 1 21 1 99 8 495
2019-09-16 0 10 3 103 4 957
2019-09-17 0 4 3 101 4 911
2019-09-18 1 7 3 123 86 629
2019-09-19 0 12 0 124 109 596
2019-09-20 0 17 2 141 8 262
2019-09-21 0 10 0 140 7 838
2019-09-22 1 6 2 112 6 839
2019-09-23 6 10 3 97 8 328
2019-09-24 1 9 3 94 5 944
2019-09-25 0 8 0 97 4 935
2019-09-26 0 12 4 97 6 015
2019-09-27 2 11 0 99 7 899
2019-09-28 3 18 4 99 4 761
2019-09-29 1 9 2 92 4 842
2019-09-30 0 9 1 98 8 150
Août 2019 22 257 31 122 225 760
2019-08-01 0 17 1 101 4 722
2019-08-02 1 16 1 99 5 527
2019-08-03 0 9 0 100 9 242
2019-08-04 0 2 0 92 4 700
2019-08-05 0 4 0 122 3 678
2019-08-06 0 8 0 94 4 677
2019-08-07 0 4 0 98 4 369
2019-08-08 0 5 0 100 6 221
2019-08-09 1 8 0 111 6 677
2019-08-10 0 1 0 99 8 730
2019-08-11 0 10 0 101 6 982
2019-08-12 0 10 1 100 22 525
2019-08-13 1 11 0 99 15 601
2019-08-14 0 10 0 100 10 146
2019-08-15 1 6 2 114 7 279
2019-08-16 1 14 0 98 8 935
2019-08-17 0 6 0 100 8 964
2019-08-18 1 2 1 103 11 513
2019-08-19 3 5 3 92 9 363
2019-08-20 0 0 1 94 4 320
2019-08-21 2 7 4 97 4 019
2019-08-22 0 5 2 95 4 156
2019-08-23 0 3 1 78 7 584
2019-08-24 0 4 1 32 2 644
2019-08-25 1 5 2 91 3 521
2019-08-26 0 9 3 100 5 440
2019-08-27 6 29 2 101 5 306
2019-08-28 1 12 2 92 4 748
2019-08-29 0 7 1 92 4 376
2019-08-30 1 16 0 93 9 018
2019-08-31 2 12 3 98 10 777
Juillet 2019 24 281 62 149 190 301
Juin 2019 11 171 3 112 246 519
2019-06-01 0 1 0 103 2 817
2019-06-02 0 1 0 97 2 941
2019-06-03 0 3 0 91 6 524
2019-06-04 0 14 0 87 11 150
2019-06-05 0 8 0 90 9 570
2019-06-06 0 5 0 99 10 447
2019-06-07 1 16 1 109 8 522
2019-06-08 0 5 1 93 5 588
2019-06-09 0 8 0 92 4 131
2019-06-10 1 8 0 93 4 120
2019-06-11 1 5 1 105 29 392
2019-06-12 0 4 0 102 13 902
2019-06-13 0 1 0 98 5 417
2019-06-14 0 5 0 104 10 181
2019-06-15 0 0 0 99 11 438
2019-06-16 0 4 0 93 9 146
2019-06-17 1 3 0 99 7 622
2019-06-18 0 0 0 104 9 803
2019-06-19 2 4 0 102 8 936
2019-06-20 0 2 0 106 7 574
2019-06-21 0 5 0 100 7 703
2019-06-22 0 6 0 103 7 936
2019-06-23 0 9 0 108 6 964
2019-06-24 4 13 0 102 5 006
2019-06-25 0 4 0 103 3 748
2019-06-26 0 6 0 112 7 551
2019-06-27 0 10 0 104 6 651
2019-06-28 0 10 0 93 7 044
2019-06-29 0 3 0 100 8 017
2019-06-30 1 8 0 102 6 678
Mai 2019 23 311 10 167 218 891
Avril 2019 21 294 9 174 311 459
Mars 2019 22 372 16 142 344 146
Février 2019 18 288 4 110 142 132
2019-02-01 1 22 0 98 4 055
2019-02-02 1 7 0 98 9 323
2019-02-03 2 8 0 106 10 729
2019-02-04 0 11 0 104 6 293
2019-02-05 0 10 0 85 1 711
2019-02-06 0 6 0 85 3 018
2019-02-07 0 13 0 90 2 793
2019-02-08 0 19 0 86 3 074
2019-02-09 0 4 0 83 2 745
2019-02-10 0 4 0 89 3 245
2019-02-11 0 1 0 76 1 985
2019-02-12 0 6 0 79 2 434
2019-02-13 0 2 0 83 2 736
2019-02-14 0 3 0 72 2 494
2019-02-15 1 6 0 79 5 880
2019-02-16 2 17 0 86 8 424
2019-02-17 2 16 1 105 10 226
2019-02-18 5 10 0 96 10 597
2019-02-19 0 9 0 102 8 445
2019-02-20 0 8 0 104 11 557
2019-02-21 0 5 0 96 5 694
2019-02-22 0 19 0 110 5 265
2019-02-23 1 14 0 96 4 284
2019-02-24 2 18 0 100 4 059
2019-02-25 0 3 2 97 3 055
2019-02-26 1 18 0 101 2 711
2019-02-27 0 8 0 100 2 345
2019-02-28 0 21 1 103 2 955
Janvier 2019 22 375 6 113 187 470
* 2018 338 6 176 81 641 2 624 946
Décembre 2018 43 306 8 253 421 582
Novembre 2018 26 467 9 641 383 363
Octobre 2018 34 527 6 321 248 725
2018-10-01 0 16 0 104 3 916
2018-10-02 2 19 0 102 5 182
2018-10-03 0 11 0 124 6 042
2018-10-04 1 8 0 89 7 397
2018-10-05 0 1 1 89 4 993
2018-10-06 1 10 0 123 5 725
2018-10-07 1 14 1 93 5 795
2018-10-08 2 17 0 102 5 479
2018-10-09 1 29 1 113 7 032
2018-10-10 1 19 0 139 7 853
2018-10-11 2 19 0 126 7 235
2018-10-12 1 28 0 140 7 594
2018-10-13 0 12 0 135 7 817
2018-10-14 5 26 0 146 7 428
2018-10-15 2 51 0 149 7 144
2018-10-16 0 22 0 102 6 306
2018-10-17 4 25 0 121 6 311
2018-10-18 2 14 0 122 6 339
2018-10-19 0 10 0 136 5 992
2018-10-20 0 8 0 115 6 644
2018-10-21 0 15 1 129 6 181
2018-10-22 0 11 0 112 5 588
2018-10-23 1 9 0 127 15 828
2018-10-24 1 15 1 135 23 623
2018-10-25 0 8 0 321 10 005
2018-10-26 2 34 1 145 7 134
2018-10-27 2 19 0 252 10 544
2018-10-28 0 9 0 276 9 982
2018-10-29 1 15 0 269 10 127
2018-10-30 2 21 0 207 9 059
2018-10-31 0 12 0 255 12 430
Septembre 2018 34 641 10 127 216 306
2018-09-01 0 20 0 24 4 424
2018-09-02 0 20 0 65 4 793
2018-09-03 3 22 0 85 7 578
2018-09-04 0 24 0 84 8 791
2018-09-05 1 20 0 84 9 905
2018-09-06 0 36 1 83 11 031
2018-09-07 1 20 0 87 10 613
2018-09-08 5 19 0 83 13 818
2018-09-09 0 26 0 92 9 656
2018-09-10 0 27 1 20 3 224
2018-09-11 4 21 1 27 4 264
2018-09-12 1 51 1 24 2 429
2018-09-13 3 46 2 20 7 949
2018-09-14 1 20 0 91 11 369
2018-09-15 0 14 0 95 9 802
2018-09-16 1 34 0 104 6 636
2018-09-17 0 20 0 94 6 787
2018-09-18 0 13 0 99 5 082
2018-09-19 1 16 0 101 8 725
2018-09-20 3 10 1 105 5 461
2018-09-21 2 27 1 93 5 926
2018-09-22 1 28 0 115 6 599
2018-09-23 0 15 0 102 6 921
2018-09-24 1 14 1 103 6 887
2018-09-25 0 17 0 114 7 190
2018-09-26 1 10 0 111 7 736
2018-09-27 0 14 0 116 7 667
2018-09-28 4 13 0 127 6 767
2018-09-29 0 7 1 99 2 850
2018-09-30 1 17 0 36 5 426
Août 2018 32 583 16 101 188 648
Juillet 2018 21 386 3 104 182 475
Juin 2018 31 442 3 110 213 303
Mai 2018 21 422 4 107 174 393
Avril 2018 25 564 5 104 159 849
Mars 2018 20 634 4 96 152 933
Février 2018 25 631 7 93 121 912
Janvier 2018 26 573 6 94 161 457
* 2017 346 6 100 56 180 1 675 168
Décembre 2017 37 499 6 91 136 063
Novembre 2017 37 675 6 93 169 670
Octobre 2017 15 426 2 93 151 449
2017-10-01 1 16 0 71 4 799
2017-10-02 0 9 0 83 4 529
2017-10-03 0 8 0 80 5 172
2017-10-04 0 7 0 86 4 363
2017-10-05 0 8 0 89 5 192
2017-10-06 0 6 0 85 4 811
2017-10-07 0 7 0 78 4 810
2017-10-08 8 24 0 81 5 378
2017-10-09 0 17 0 93 4 986
2017-10-10 1 21 0 74 4 632
2017-10-11 1 25 0 67 4 328
2017-10-12 0 8 1 76 4 661
2017-10-13 0 13 0 67 3 429
2017-10-14 0 14 0 67 24 056
2017-10-15 1 17 0 67 3 713
2017-10-16 0 18 0 72 3 995
2017-10-17 2 7 0 74 3 028
2017-10-18 0 19 0 70 3 977
2017-10-19 0 20 0 71 3 742
2017-10-20 0 23 0 70 4 235
2017-10-21 0 9 1 69 3 775
2017-10-22 0 12 0 74 3 882
2017-10-23 1 15 0 72 3 999
2017-10-24 0 18 0 83 3 576
2017-10-25 0 13 0 78 4 578
2017-10-26 0 24 0 83 4 418
2017-10-27 0 16 0 83 4 128
2017-10-28 0 16 0 79 3 950
2017-10-29 0 8 0 79 4 420
2017-10-30 0 7 0 76 3 927
2017-10-31 0 1 0 73 2 960
Septembre 2017 28 548 5 94 135 543
Août 2017 29 384 6 99 148 097
Juillet 2017 25 490 5 87 176 472
2017-07-01 0 15 0 70 4 062
2017-07-02 0 3 1 65 3 539
2017-07-03 1 23 1 62 3 836
2017-07-04 1 26 0 72 3 952
2017-07-05 1 10 0 61 4 350
2017-07-06 1 29 0 87 4 569
2017-07-07 0 20 1 77 4 031
2017-07-08 1 22 0 69 5 874
2017-07-09 0 19 0 69 7 487
2017-07-10 0 17 0 72 5 879
2017-07-11 1 4 0 67 7 492
2017-07-12 0 5 0 71 6 813
2017-07-13 1 4 0 79 25 553
2017-07-14 0 5 0 87 5 690
2017-07-15 0 5 0 72 4 170
2017-07-16 2 18 0 78 4 326
2017-07-17 5 25 0 73 4 689
2017-07-18 0 17 1 76 4 440
2017-07-19 1 19 0 83 3 965
2017-07-20 0 12 0 76 4 047
2017-07-21 1 19 1 75 5 666
2017-07-22 1 10 0 72 4 430
2017-07-23 2 22 0 77 5 427
2017-07-24 0 21 0 83 6 448
2017-07-25 1 16 0 69 4 956
2017-07-26 3 31 0 84 5 953
2017-07-27 0 21 0 75 5 107
2017-07-28 0 12 0 70 6 063
2017-07-29 0 18 0 72 5 667
2017-07-30 1 9 0 67 4 294
2017-07-31 1 13 0 68 3 697
Juin 2017 33 603 4 89 156 248
Mai 2017 26 470 2 99 181 189
Avril 2017 31 490 5 180 139 896
Mars 2017 27 432 3 119 90 981
Février 2017 31 587 7 87 74 924
Janvier 2017 27 496 5 80 114 636
* 2016 389 7 721 79 245 2 075 605
Décembre 2016 34 533 2 170 118 206
Novembre 2016 34 586 6 245 122 991
Octobre 2016 43 726 7 191 160 217
2016-10-01 0 2 0 77 5 321
2016-10-02 1 21 0 58 3 379
2016-10-03 0 20 0 65 4 029
2016-10-04 4 16 0 54 5 012
2016-10-05 2 26 1 54 8 464
2016-10-06 2 23 0 54 4 844
2016-10-07 3 30 0 58 4 198
2016-10-08 0 20 0 79 5 202
2016-10-09 2 16 0 139 7 188
2016-10-10 0 23 0 67 5 666
2016-10-11 5 27 0 65 5 851
2016-10-12 1 57 0 55 5 424
2016-10-13 4 46 1 60 5 322
2016-10-14 3 27 0 63 4 776
2016-10-15 6 27 0 191 5 482
2016-10-16 1 37 1 83 5 433
2016-10-17 3 23 0 82 4 868
2016-10-18 0 9 0 66 3 634
2016-10-19 0 13 1 64 4 158
2016-10-20 0 22 1 56 15 180
2016-10-21 0 14 0 55 4 340
2016-10-22 1 19 0 57 3 387
2016-10-23 0 3 0 30 2 919
2016-10-24 1 40 1 78 4 044
2016-10-25 2 31 0 76 4 859
2016-10-26 0 26 0 72 5 816
2016-10-27 0 20 0 72 3 954
2016-10-28 0 19 0 70 4 387
2016-10-29 0 26 0 63 4 333
2016-10-30 1 16 0 66 4 530
2016-10-31 1 27 1 77 4 217
Septembre 2016 26 657 9 85 157 449
2016-09-01 0 6 0 74 4 766
2016-09-02 0 11 0 20 3 957
2016-09-03 2 15 0 24 5 392
2016-09-04 2 24 2 27 6 016
2016-09-05 1 48 0 60 6 378
2016-09-06 0 19 0 64 16 148
2016-09-07 0 25 0 29 5 865
2016-09-08 0 8 1 28 2 521
2016-09-09 2 25 2 66 4 139
2016-09-10 1 13 0 57 3 591
2016-09-11 0 20 0 52 3 703
2016-09-12 5 46 2 56 3 958
2016-09-13 2 32 0 56 4 310
2016-09-14 1 36 0 57 3 961
2016-09-15 0 20 0 54 3 639
2016-09-16 0 8 0 85 5 882
2016-09-17 1 17 1 63 4 479
2016-09-18 1 37 0 55 4 935
2016-09-19 1 18 0 55 4 541
2016-09-20 2 43 0 53 6 073
2016-09-21 0 23 0 43 3 742
2016-09-22 1 18 1 53 4 611
2016-09-23 0 15 0 70 4 243
2016-09-24 0 18 0 70 5 283
2016-09-25 2 19 0 59 15 111
2016-09-26 0 12 0 62 4 202
2016-09-27 1 10 0 55 4 151
2016-09-28 1 28 0 55 4 096
2016-09-29 0 24 0 58 3 581
2016-09-30 0 19 0 55 4 175
Août 2016 31 721 9 114 169 873
Juillet 2016 19 513 3 58 166 690
Juin 2016 30 565 5 53 211 715
Mai 2016 40 1 116 8 94 166 514
Avril 2016 27 529 7 65 155 208
2016-04-01 3 38 2 30 3 618
2016-04-02 0 23 1 23 3 917
2016-04-03 3 45 1 65 6 292
2016-04-04 3 45 0 31 4 738
2016-04-05 0 6 0 26 3 350
2016-04-06 0 15 0 22 4 462
2016-04-07 1 13 1 21 3 485
2016-04-08 0 9 0 23 3 328
2016-04-09 2 17 0 24 3 870
2016-04-10 0 13 0 25 4 267
2016-04-11 0 19 0 55 6 024
2016-04-12 1 16 0 59 14 106
2016-04-13 4 14 0 59 11 237
2016-04-14 0 14 0 52 5 426
2016-04-15 1 14 0 20 3 457
2016-04-16 0 7 0 50 5 198
2016-04-17 0 2 0 49 5 204
2016-04-18 1 17 1 20 4 013
2016-04-19 0 11 1 20 3 807
2016-04-20 1 17 0 23 3 488
2016-04-21 0 16 0 25 3 419
2016-04-22 0 21 0 37 4 063
2016-04-23 0 8 0 36 4 166
2016-04-24 1 14 0 37 5 654
2016-04-25 2 25 0 65 6 602
2016-04-26 0 16 0 63 5 983
2016-04-27 0 20 0 49 6 244
2016-04-28 1 12 0 54 6 223
2016-04-29 3 29 0 22 4 065
2016-04-30 0 13 0 56 5 502
Mars 2016 35 513 11 88 224 056
Février 2016 35 640 4 96 192 454
Janvier 2016 35 622 8 95 230 232
* 2015 373 6 684 79 100 1 549 803
Décembre 2015 28 499 7 68 140 303
Novembre 2015 40 724 5 35 146 607
Octobre 2015 32 760 10 84 227 528
Septembre 2015 40 948 13 100 169 012
2015-09-01 3 40 0 23 4 812
2015-09-02 0 52 2 72 5 791
2015-09-03 0 21 0 16 4 722
2015-09-04 2 20 1 67 4 506
2015-09-05 2 40 2 79 8 360
2015-09-06 1 58 0 21 4 206
2015-09-07 0 27 1 17 3 924
2015-09-08 6 44 0 100 9 516
2015-09-09 1 26 0 74 6 952
2015-09-10 0 37 1 73 5 976
2015-09-11 0 43 0 80 7 212
2015-09-12 0 23 0 81 5 584
2015-09-13 0 30 0 74 5 189
2015-09-14 1 25 1 19 3 457
2015-09-15 2 18 0 20 2 649
2015-09-16 1 23 0 62 4 565
2015-09-17 0 10 0 59 5 055
2015-09-18 0 36 0 72 4 251
2015-09-19 1 36 0 73 4 774
2015-09-20 1 41 1 69 4 977
2015-09-21 1 23 0 75 11 093
2015-09-22 6 28 1 22 3 585
2015-09-23 0 33 0 65 5 593
2015-09-24 1 42 0 71 5 489
2015-09-25 3 24 0 17 3 955
2015-09-26 2 25 1 77 5 774
2015-09-27 3 47 1 88 6 711
2015-09-28 2 34 0 79 7 065
2015-09-29 0 6 0 27 5 105
2015-09-30 1 36 1 85 8 164
Août 2015 36 566 12 61 119 954
Juillet 2015 29 462 7 31 89 666
Juin 2015 24 453 5 30 112 317
Mai 2015 30 390 2 24 73 874
Avril 2015 29 408 4 25 95 371
2015-04-01 1 15 0 20 2 794
2015-04-02 1 21 0 16 2 834
2015-04-03 0 14 0 17 2 508
2015-04-04 0 8 0 15 1 598
2015-04-05 0 4 0 16 4 225
2015-04-06 1 5 0 22 4 037
2015-04-07 1 8 0 17 3 300
2015-04-08 0 16 0 22 2 846
2015-04-09 0 3 0 18 3 300
2015-04-10 2 18 0 22 3 304
2015-04-11 1 19 1 18 3 102
2015-04-12 0 7 1 12 2 663
2015-04-13 1 10 0 14 3 621
2015-04-14 0 16 0 25 2 946
2015-04-15 0 5 0 17 2 800
2015-04-16 0 3 0 19 3 815
2015-04-17 1 9 0 16 3 313
2015-04-18 0 11 0 16 3 035
2015-04-19 0 5 0 16 4 184
2015-04-20 1 8 0 16 2 818
2015-04-21 0 1 0 18 2 616
2015-04-22 1 13 0 18 2 909
2015-04-23 0 19 0 24 4 246
2015-04-24 0 18 0 18 3 149
2015-04-25 8 32 1 17 3 211
2015-04-26 4 35 0 20 3 250
2015-04-27 3 35 0 18 3 609
2015-04-28 0 6 0 13 3 318
2015-04-29 2 23 1 16 3 839
2015-04-30 1 21 0 16 2 181
Mars 2015 38 550 7 37 130 116
Février 2015 15 434 2 24 123 854
2015-02-01 1 23 0 15 2 764
2015-02-02 4 16 0 19 3 123
2015-02-03 0 24 0 19 3 982
2015-02-04 0 20 0 20 13 958
2015-02-05 0 8 0 15 4 445
2015-02-06 2 15 0 17 4 092
2015-02-07 0 11 0 17 3 923
2015-02-08 0 16 0 15 2 919
2015-02-09 0 47 0 18 3 036
2015-02-10 0 16 0 17 3 314
2015-02-11 0 4 0 15 3 212
2015-02-12 0 13 0 18 3 091
2015-02-13 0 24 0 15 3 570
2015-02-14 2 24 1 16 3 435
2015-02-15 4 38 0 16 3 932
2015-02-16 1 26 0 15 4 563
2015-02-17 0 6 0 15 2 297
2015-02-18 0 2 0 12 2 335
2015-02-19 0 7 0 17 2 509
2015-02-20 0 13 0 14 2 356
2015-02-21 0 7 0 22 4 319
2015-02-22 0 9 0 21 4 162
2015-02-23 0 19 0 19 3 587
2015-02-24 0 5 0 18 2 084
2015-02-25 0 10 0 16 3 096
2015-02-26 0 15 0 21 10 939
2015-02-27 0 2 0 24 9 803
2015-02-28 1 14 1 22 9 008
Janvier 2015 32 490 5 44 121 201
2015-01-01 2 23 0 19 3 144
2015-01-02 0 16 0 15 4 048
2015-01-03 0 15 0 22 3 759
2015-01-04 0 4 0 19 3 288
2015-01-05 2 20 0 15 4 716
2015-01-06 0 5 0 22 4 665
2015-01-07 7 37 1 20 4 235
2015-01-08 0 17 0 18 5 827
2015-01-09 2 10 0 21 3 910
2015-01-10 0 16 0 18 3 671
2015-01-11 0 8 0 20 4 832
2015-01-12 4 17 0 21 3 973
2015-01-13 2 14 0 14 2 410
2015-01-14 0 16 0 15 3 118
2015-01-15 2 38 1 17 3 532
2015-01-16 0 23 0 18 3 617
2015-01-17 0 13 0 17 2 699
2015-01-18 2 13 0 18 3 678
2015-01-19 5 16 0 16 3 676
2015-01-20 0 12 1 19 3 624
2015-01-21 1 12 0 20 2 778
2015-01-22 0 8 1 16 6 250
2015-01-23 1 18 0 18 2 801
2015-01-24 0 14 0 44 3 349
2015-01-25 0 8 0 18 6 193
2015-01-26 0 25 0 21 4 761
2015-01-27 1 23 1 18 6 578
2015-01-28 0 4 0 16 2 032
2015-01-29 0 15 0 15 3 742
2015-01-30 0 16 0 13 2 970
2015-01-31 1 14 0 14 3 325
* 2014 428 7 364 58 58 2 478 164
Décembre 2014 24 360 4 33 191 610
Novembre 2014 37 572 7 46 525 858
2014-11-01 0 10 0 39 31 767
2014-11-02 4 28 1 38 30 905
2014-11-03 2 15 1 46 35 171
2014-11-04 0 10 0 45 33 110
2014-11-05 1 19 0 42 33 257
2014-11-06 1 32 0 37 27 962
2014-11-07 3 33 0 40 33 652
2014-11-08 2 9 0 45 28 231
2014-11-09 1 24 0 32 22 476
2014-11-10 0 24 0 45 25 456
2014-11-11 0 29 0 35 24 461
2014-11-12 0 13 0 34 21 316
2014-11-13 0 10 0 27 13 857
2014-11-14 0 11 0 28 11 982
2014-11-15 2 21 0 34 10 235
2014-11-16 1 26 0 27 8 102
2014-11-17 2 16 0 25 10 338
2014-11-18 1 10 0 25 9 298
2014-11-19 0 8 0 25 10 140
2014-11-20 4 18 0 24 9 332
2014-11-21 0 12 1 26 11 050
2014-11-22 0 14 1 26 8 358
2014-11-23 2 15 1 22 6 229
2014-11-24 4 35 0 26 9 487
2014-11-25 0 14 0 30 14 490
2014-11-26 3 20 1 25 10 319
2014-11-27 0 31 0 28 9 632
2014-11-28 2 22 0 24 7 672
2014-11-29 2 27 1 25 9 524
2014-11-30 0 16 0 22 8 049
Octobre 2014 45 928 8 58 364 915
Septembre 2014 24 549 8 32 162 413
Août 2014 17 251 4 27 191 624
Juillet 2014 25 369 3 30 236 312
2014-07-01 1 10 0 19 5 255
2014-07-02 2 27 0 18 5 751
2014-07-03 1 33 0 28 6 315
2014-07-04 1 28 1 30 9 465
2014-07-05 0 18 0 28 10 029
2014-07-06 0 9 0 22 8 518
2014-07-07 2 9 0 26 4 726
2014-07-08 1 9 1 20 6 102
2014-07-09 1 7 0 20 6 697
2014-07-10 0 5 0 22 5 937
2014-07-11 0 12 0 13 5 141
2014-07-12 0 8 0 23 8 506
2014-07-13 1 7 0 19 9 921
2014-07-14 1 16 0 12 5 280
2014-07-15 4 12 0 13 3 488
2014-07-16 1 7 0 28 10 016
2014-07-17 0 9 0 24 16 100
2014-07-18 0 11 0 23 16 608
2014-07-19 1 7 0 18 16 697
2014-07-20 1 7 0 20 4 967
2014-07-21 0 1 0 26 6 993
2014-07-22 1 11 0 21 8 213
2014-07-23 0 13 0 23 8 227
2014-07-24 0 1 0 23 8 500
2014-07-25 1 8 0 21 8 352
2014-07-26 0 4 0 21 6 351
2014-07-27 1 22 1 11 2 847
2014-07-28 2 21 0 17 4 541
2014-07-29 0 7 0 16 6 234
2014-07-30 0 17 0 18 5 977
2014-07-31 2 13 0 15 4 558
Juin 2014 29 602 3 32 220 918
Mai 2014 34 842 6 29 157 174
Avril 2014 45 662 1 25 104 486
Mars 2014 32 595 4 26 120 439
2014-03-01 0 12 1 20 3 786
2014-03-02 1 4 1 24 3 590
2014-03-03 0 7 0 20 2 446
2014-03-04 0 23 0 20 3 629
2014-03-05 2 22 0 21 3 661
2014-03-06 1 18 0 20 2 585
2014-03-07 0 15 0 23 2 700
2014-03-08 1 13 0 21 2 461
2014-03-09 0 4 0 19 2 983
2014-03-10 0 19 0 16 2 791
2014-03-11 1 19 0 19 3 130
2014-03-12 0 16 0 21 3 522
2014-03-13 1 31 0 22 5 550
2014-03-14 0 16 0 26 4 818
2014-03-15 1 11 0 21 5 306
2014-03-16 4 19 0 24 6 026
2014-03-17 3 25 0 20 3 862
2014-03-18 2 35 0 22 5 721
2014-03-19 0 19 0 21 4 981
2014-03-20 1 25 1 18 3 637
2014-03-21 1 27 0 24 5 005
2014-03-22 1 13 0 20 4 151
2014-03-23 4 27 0 20 5 982
2014-03-24 2 46 0 21 4 374
2014-03-25 0 26 0 18 2 690
2014-03-26 2 23 1 19 3 653
2014-03-27 0 19 0 20 3 562
2014-03-28 3 18 0 20 3 984
2014-03-29 0 17 0 17 3 432
2014-03-30 0 7 0 17 2 121
2014-03-31 1 19 0 18 4 300
Février 2014 24 660 5 28 102 996
Janvier 2014 92 974 5 33 99 419
2014-01-01 4 34 0 24 3 312
2014-01-02 0 50 0 23 4 511
2014-01-03 0 43 0 20 2 895
2014-01-04 3 41 0 17 4 764
2014-01-05 1 17 0 25 4 039
2014-01-06 4 36 0 25 5 158
2014-01-07 48 63 0 17 3 220
2014-01-08 1 19 0 24 3 415
2014-01-09 0 34 0 27 4 672
2014-01-10 2 27 1 25 3 536
2014-01-11 1 18 0 33 2 773
2014-01-12 0 29 0 17 4 429
2014-01-13 1 18 0 15 2 791
2014-01-14 2 30 0 17 2 962
2014-01-15 3 21 0 15 2 763
2014-01-16 1 18 0 11 2 260
2014-01-17 1 13 0 13 2 305
2014-01-18 0 20 0 13 2 086
2014-01-19 0 26 0 11 1 961
2014-01-20 6 56 0 13 2 554
2014-01-21 0 38 0 16 2 432
2014-01-22 0 14 0 20 4 564
2014-01-23 0 20 1 21 3 405
2014-01-24 1 16 0 20 2 979
2014-01-25 1 31 1 14 2 094
2014-01-26 3 38 0 14 3 666
2014-01-27 1 43 1 16 3 439
2014-01-28 1 43 1 15 2 432
2014-01-29 3 34 0 15 2 213
2014-01-30 2 36 0 16 3 217
2014-01-31 2 48 0 17 2 572
* 2013 408 8 887 76 89 1 597 727
Décembre 2013 36 785 2 79 132 305
Novembre 2013 36 751 8 29 141 119
2013-11-01 4 33 2 29 4 258
2013-11-02 1 10 0 18 3 364
2013-11-03 0 18 0 17 4 043
2013-11-04 0 16 0 16 2 787
2013-11-05 0 12 0 19 4 349
2013-11-06 0 14 0 25 12 178
2013-11-07 0 30 0 23 5 858
2013-11-08 3 22 0 16 3 999
2013-11-09 0 10 0 19 4 800
2013-11-10 1 16 0 17 4 744
2013-11-11 2 14 0 13 3 463
2013-11-12 1 32 0 14 3 326
2013-11-13 0 12 0 17 2 912
2013-11-14 2 27 0 16 2 991
2013-11-15 0 17 0 15 2 883
2013-11-16 2 18 0 25 3 279
2013-11-17 0 13 0 28 5 091
2013-11-18 2 20 1 20 3 269
2013-11-19 3 25 1 16 4 107
2013-11-20 5 53 0 25 4 556
2013-11-21 0 33 0 26 4 719
2013-11-22 2 35 1 24 5 798
2013-11-23 0 39 0 21 13 713
2013-11-24 1 32 0 29 8 700
2013-11-25 0 14 0 27 3 856
2013-11-26 2 46 0 19 3 287
2013-11-27 1 46 0 19 4 243
2013-11-28 2 37 2 18 3 613
2013-11-29 2 30 1 17 3 673
2013-11-30 0 27 0 18 3 260
Octobre 2013 37 683 10 26 116 570
2013-10-01 1 22 0 20 3 500
2013-10-02 1 17 0 11 2 628
2013-10-03 3 37 0 17 2 638
2013-10-04 0 5 0 16 2 483
2013-10-05 0 2 1 17 2 138
2013-10-06 1 4 1 16 2 110
2013-10-07 2 13 0 19 5 005
2013-10-08 0 18 0 18 2 789
2013-10-09 4 52 0 21 4 561
2013-10-10 0 18 0 19 2 704
2013-10-11 1 30 0 18 2 775
2013-10-12 0 8 1 19 6 217
2013-10-13 4 44 2 20 4 896
2013-10-14 1 23 0 26 8 009
2013-10-15 1 13 1 26 6 880
2013-10-16 0 14 0 13 2 695
2013-10-17 1 13 0 13 4 087
2013-10-18 0 23 0 20 3 077
2013-10-19 1 18 0 23 4 612
2013-10-20 2 17 0 20 3 338
2013-10-21 0 36 0 14 4 318
2013-10-22 2 42 2 14 4 325
2013-10-23 2 69 0 15 3 343
2013-10-24 1 34 0 15 2 678
2013-10-25 0 13 0 20 3 168
2013-10-26 0 9 0 11 3 251
2013-10-27 0 4 1 18 3 432
2013-10-28 6 29 0 17 3 715
2013-10-29 2 32 0 17 4 856
2013-10-30 1 17 1 19 3 476
2013-10-31 0 7 0 14 2 866
Septembre 2013 33 723 15 29 160 779
Août 2013 20 356 4 30 113 960
Juillet 2013 21 331 2 24 120 164
Juin 2013 40 731 5 34 119 512
Mai 2013 34 881 3 47 157 484
Avril 2013 38 799 8 33 124 279
Mars 2013 40 1 111 9 62 147 762
Février 2013 32 838 5 79 125 299
Janvier 2013 41 898 5 89 138 494
* 2012 446 10 690 67 157 1 274 957
Décembre 2012 57 1 411 4 45 150 137
Novembre 2012 46 1 137 8 25 112 399
Octobre 2012 45 1 068 7 25 80 970
2012-10-01 4 36 0 16 2 575
2012-10-02 0 19 0 16 2 057
2012-10-03 1 21 0 14 1 771
2012-10-04 1 15 0 25 2 211
2012-10-05 1 6 0 16 1 729
2012-10-06 0 3 0 14 1 339
2012-10-07 1 25 1 13 1 948
2012-10-08 0 43 0 14 3 370
2012-10-09 1 36 0 21 2 924
2012-10-10 2 46 0 17 2 361
2012-10-11 1 54 0 17 3 608
2012-10-12 0 22 0 16 1 810
2012-10-13 3 37 1 14 2 059
2012-10-14 2 57 1 21 2 843
2012-10-15 2 67 0 18 2 859
2012-10-16 0 35 0 17 2 927
2012-10-17 2 68 0 23 3 599
2012-10-18 1 42 1 20 2 644
2012-10-19 1 60 0 15 2 712
2012-10-20 1 18 1 15 2 052
2012-10-21 6 55 1 14 2 785
2012-10-22 2 43 0 16 2 612
2012-10-23 1 35 0 20 2 967
2012-10-24 1 22 0 16 2 174
2012-10-25 0 23 0 14 2 367
2012-10-26 0 25 0 13 2 731
2012-10-27 0 4 0 13 2 966
2012-10-28 3 43 1 19 4 497
2012-10-29 1 31 0 22 3 134
2012-10-30 5 43 0 17 2 931
2012-10-31 2 34 0 20 2 408
Septembre 2012 37 876 11 38 107 023
Août 2012 30 595 5 41 95 032
Juillet 2012 24 563 2 157 78 638
Juin 2012 39 984 10 33 88 620
Mai 2012 22 703 5 26 77 701
Avril 2012 33 714 4 33 95 151
Mars 2012 35 977 5 48 160 160
2012-03-01 1 35 0 27 6 158
2012-03-02 3 13 2 26 5 378
2012-03-03 0 18 0 23 5 671
2012-03-04 4 28 1 20 5 358
2012-03-05 4 89 0 29 6 627
2012-03-06 1 45 0 45 6 165
2012-03-07 0 59 0 20 7 932
2012-03-08 3 35 0 46 6 667
2012-03-09 1 33 0 21 6 097
2012-03-10 0 22 0 21 5 441
2012-03-11 1 28 0 25 5 443
2012-03-12 1 20 0 25 5 930
2012-03-13 0 15 0 21 5 416
2012-03-14 2 34 0 48 6 562
2012-03-15 0 17 0 31 4 576
2012-03-16 0 14 0 30 4 508
2012-03-17 1 25 0 25 4 761
2012-03-18 1 39 0 27 5 081
2012-03-19 2 29 0 40 5 719
2012-03-20 2 51 0 24 5 746
2012-03-21 1 42 1 23 4 563
2012-03-22 0 34 0 23 4 276
2012-03-23 1 25 0 18 4 565
2012-03-24 2 38 1 21 4 568
2012-03-25 2 25 0 22 3 868
2012-03-26 1 34 0 21 4 653
2012-03-27 1 41 0 22 3 772
2012-03-28 0 16 0 23 3 667
2012-03-29 0 22 0 27 3 720
2012-03-30 0 20 0 24 3 175
2012-03-31 0 31 0 18 4 097
Février 2012 34 704 5 33 117 877
2012-02-01 4 29 0 21 3 610
2012-02-02 2 26 0 24 5 279
2012-02-03 0 13 0 16 3 779
2012-02-04 1 23 0 19 3 802
2012-02-05 1 18 0 21 4 835
2012-02-06 4 31 1 28 4 403
2012-02-07 3 36 0 21 3 830
2012-02-08 0 16 0 21 3 805
2012-02-09 1 23 0 21 3 894
2012-02-10 0 29 1 23 3 679
2012-02-11 0 7 0 24 3 043
2012-02-12 0 17 0 25 3 175
2012-02-13 2 14 1 13 2 124
2012-02-14 0 34 0 22 3 657
2012-02-15 2 25 0 25 3 278
2012-02-16 0 5 0 24 2 556
2012-02-17 0 15 1 24 3 186
2012-02-18 1 10 0 17 2 384
2012-02-19 4 21 0 20 2 559
2012-02-20 1 31 0 23 2 799
2012-02-21 1 45 0 21 4 992
2012-02-22 0 31 0 32 6 101
2012-02-23 0 9 0 31 5 330
2012-02-24 1 28 0 22 4 611
2012-02-25 2 20 1 32 4 925
2012-02-26 2 50 0 29 5 297
2012-02-27 1 26 0 33 4 546
2012-02-28 1 45 0 23 5 919
2012-02-29 0 27 0 26 6 479
Janvier 2012 44 958 1 30 111 249
* 2011 822 21 877 118 48 1 861 895
Décembre 2011 68 1 315 7 36 141 929
Novembre 2011 94 1 539 4 36 150 015
2011-11-01 3 44 0 23 4 947
2011-11-02 6 67 0 20 4 287
2011-11-03 4 65 0 24 4 618
2011-11-04 10 91 0 19 4 838
2011-11-05 6 39 0 21 3 164
2011-11-06 4 77 0 21 4 609
2011-11-07 6 77 1 20 4 952
2011-11-08 2 48 0 19 3 243
2011-11-09 2 36 0 22 4 723
2011-11-10 4 55 0 19 3 721
2011-11-11 2 37 0 20 3 239
2011-11-12 2 15 0 21 4 391
2011-11-13 1 21 0 27 4 446
2011-11-14 4 60 0 27 4 759
2011-11-15 5 58 0 25 7 805
2011-11-16 2 50 0 23 3 902
2011-11-17 2 49 0 18 3 185
2011-11-18 1 67 0 26 6 226
2011-11-19 0 38 0 26 6 646
2011-11-20 2 61 1 36 8 056
2011-11-21 1 45 0 25 6 692
2011-11-22 1 31 0 30 6 080
2011-11-23 4 50 0 23 4 242
2011-11-24 1 40 0 25 5 667
2011-11-25 2 45 0 24 3 992
2011-11-26 2 43 1 19 3 693
2011-11-27 2 65 1 26 5 393
2011-11-28 4 77 0 31 5 999
2011-11-29 2 39 0 33 5 234
2011-11-30 7 49 0 29 7 266
Octobre 2011 81 1 597 13 41 169 207
Septembre 2011 96 1 991 19 24 158 540
2011-09-01 1 105 0 18 4 820
2011-09-02 0 44 0 17 3 692
2011-09-03 0 35 0 16 3 065
2011-09-04 1 39 1 18 3 341
2011-09-05 4 67 1 21 3 815
2011-09-06 0 37 0 12 5 171
2011-09-07 2 64 2 17 7 762
2011-09-08 2 83 0 23 7 440
2011-09-09 0 103 0 20 8 363
2011-09-10 0 27 0 15 6 046
2011-09-11 11 96 0 24 5 135
2011-09-12 6 137 1 18 5 300
2011-09-13 18 102 0 19 6 004
2011-09-14 5 57 0 22 4 369
2011-09-15 2 43 0 15 3 469
2011-09-16 3 88 0 18 5 547
2011-09-17 1 43 2 19 4 640
2011-09-18 4 42 2 21 5 991
2011-09-19 2 80 0 18 5 773
2011-09-20 4 66 1 22 6 364
2011-09-21 8 83 0 21 5 960
2011-09-22 1 47 2 20 4 972
2011-09-23 2 43 0 18 4 346
2011-09-24 2 44 0 23 3 841
2011-09-25 2 62 3 20 4 963
2011-09-26 1 65 0 19 4 935
2011-09-27 6 66 3 19 4 561
2011-09-28 3 108 1 21 5 839
2011-09-29 5 77 0 18 7 139
2011-09-30 0 38 0 15 5 877
Août 2011 68 1 372 16 48 135 201
Juillet 2011 57 1 156 10 30 112 626
Juin 2011 40 1 214 6 31 149 115
Mai 2011 64 1 997 8 39 181 997
Avril 2011 46 1 637 9 38 176 986
Mars 2011 54 2 388 6 31 211 307
2011-03-01 3 122 0 18 6 680
2011-03-02 2 125 0 22 7 771
2011-03-03 2 101 0 20 6 758
2011-03-04 1 42 0 17 4 167
2011-03-05 3 23 0 20 4 811
2011-03-06 1 22 0 18 6 699
2011-03-07 1 42 1 17 6 565
2011-03-08 1 37 0 15 7 116
2011-03-09 1 39 0 16 10 831
2011-03-10 3 77 0 15 19 804
2011-03-11 2 61 0 19 12 773
2011-03-12 4 51 1 16 5 555
2011-03-13 4 68 0 15 5 274
2011-03-14 2 115 0 16 5 003
2011-03-15 1 92 0 17 6 428
2011-03-16 3 212 1 21 9 712
2011-03-17 0 120 1 19 5 516
2011-03-18 0 109 0 19 3 950
2011-03-19 1 32 0 16 3 488
2011-03-20 0 56 0 20 3 576
2011-03-21 1 81 0 15 6 916
2011-03-22 1 58 0 30 6 314
2011-03-23 2 95 0 19 8 455
2011-03-24 3 147 0 19 6 592
2011-03-25 0 66 0 22 9 114
2011-03-26 1 15 0 21 4 424
2011-03-27 0 24 0 31 4 299
2011-03-28 3 77 0 28 5 137
2011-03-29 3 92 1 26 4 709
2011-03-30 4 104 1 25 5 221
2011-03-31 1 83 0 28 7 649
Février 2011 59 2 656 5 46 128 248
2011-02-01 3 136 0 46 5 654
2011-02-02 3 121 0 25 5 448
2011-02-03 2 68 0 30 4 573
2011-02-04 2 95 0 22 4 221
2011-02-05 4 54 0 26 3 574
2011-02-06 0 36 0 27 3 427
2011-02-07 5 100 0 30 4 483
2011-02-08 4 139 0 24 4 710
2011-02-09 1 103 0 23 5 418
2011-02-10 1 100 0 22 4 527
2011-02-11 3 116 2 41 4 732
2011-02-12 2 58 0 37 3 823
2011-02-13 1 74 0 36 4 349
2011-02-14 0 118 0 40 4 898
2011-02-15 3 100 0 38 4 914
2011-02-16 0 74 0 32 4 322
2011-02-17 3 82 0 29 4 503
2011-02-18 4 181 0 41 5 880
2011-02-19 0 34 0 22 3 355
2011-02-20 2 50 0 37 3 284
2011-02-21 1 151 1 35 5 505
2011-02-22 1 148 1 35 6 218
2011-02-23 5 132 0 43 5 855
2011-02-24 4 167 0 22 5 961
2011-02-25 0 48 0 19 3 745
2011-02-26 0 17 1 17 2 862
2011-02-27 1 19 0 19 2 743
2011-02-28 4 135 0 22 5 264
Janvier 2011 95 3 015 15 44 146 724
* 2010 615 23 079 70 91 1 409 620
Décembre 2010 54 2 635 5 43 199 984
Novembre 2010 59 2 475 6 49 127 779
2010-11-01 2 69 0 42 4 918
2010-11-02 4 147 0 40 5 882
2010-11-03 1 134 0 34 4 974
2010-11-04 4 98 0 28 4 484
2010-11-05 3 140 0 34 4 770
2010-11-06 1 30 0 25 2 633
2010-11-07 1 56 0 25 3 634
2010-11-08 1 50 0 37 4 890
2010-11-09 2 60 1 38 3 406
2010-11-10 3 87 0 41 4 949
2010-11-11 2 48 0 40 3 457
2010-11-12 1 54 0 28 3 255
2010-11-13 1 41 0 24 2 528
2010-11-14 2 94 0 37 4 624
2010-11-15 1 129 1 49 4 879
2010-11-16 1 82 0 33 4 288
2010-11-17 0 44 0 27 4 513
2010-11-18 1 65 0 22 3 684
2010-11-19 2 72 2 23 3 586
2010-11-20 4 70 0 24 3 798
2010-11-21 3 70 0 26 3 650
2010-11-22 3 81 0 30 4 196
2010-11-23 1 80 0 26 4 872
2010-11-24 3 110 1 27 4 984
2010-11-25 3 129 1 33 4 861
2010-11-26 1 85 0 32 4 900
2010-11-27 1 38 0 27 3 096
2010-11-28 0 46 0 34 3 836
2010-11-29 3 111 0 33 4 893
2010-11-30 4 155 0 33 5 339
Octobre 2010 56 2 811 15 58 134 942
Septembre 2010 53 1 528 8 29 95 249
2010-09-01 2 64 1 15 3 537
2010-09-02 2 76 0 14 3 989
2010-09-03 3 85 0 19 3 885
2010-09-04 1 38 0 20 3 616
2010-09-05 1 48 0 26 5 204
2010-09-06 1 76 0 24 4 914
2010-09-07 0 30 0 17 2 733
2010-09-08 4 80 1 15 3 386
2010-09-09 7 72 0 17 2 897
2010-09-10 1 40 0 21 3 001
2010-09-11 1 30 1 19 2 447
2010-09-12 1 38 0 14 2 426
2010-09-13 1 35 1 17 3 257
2010-09-14 2 49 0 15 2 984
2010-09-15 1 33 0 19 2 355
2010-09-16 0 16 0 15 2 237
2010-09-17 2 27 0 14 2 374
2010-09-18 0 12 0 11 2 345
2010-09-19 1 18 0 17 2 430
2010-09-20 6 97 0 20 3 524
2010-09-21 4 72 2 19 3 395
2010-09-22 3 66 0 29 3 745
2010-09-23 1 45 0 17 3 086
2010-09-24 0 27 0 11 2 457
2010-09-25 3 45 0 17 2 727
2010-09-26 1 68 0 22 3 215
2010-09-27 0 62 1 15 2 961
2010-09-28 3 71 0 17 3 530
2010-09-29 1 56 1 21 4 026
2010-09-30 0 52 0 12 2 566
Août 2010 32 1 287 6 33 89 617
Juillet 2010 34 1 637 5 32 97 290
2010-07-01 1 30 0 21 3 321
2010-07-02 1 52 1 16 3 049
2010-07-03 1 37 0 16 2 560
2010-07-04 0 16 0 13 2 269
2010-07-05 4 85 0 26 4 056
2010-07-06 0 91 0 21 4 081
2010-07-07 1 121 1 21 4 639
2010-07-08 1 73 0 24 3 929
2010-07-09 1 79 0 24 3 726
2010-07-10 0 27 0 17 2 693
2010-07-11 1 29 0 17 2 442
2010-07-12 0 62 0 32 4 813
2010-07-13 2 51 0 17 2 918
2010-07-14 1 36 0 21 3 013
2010-07-15 0 52 0 19 3 510
2010-07-16 1 70 0 16 3 362
2010-07-17 1 24 0 13 2 507
2010-07-18 4 28 0 14 2 203
2010-07-19 2 62 0 17 3 256
2010-07-20 0 28 0 22 2 386
2010-07-21 0 42 0 21 2 918
2010-07-22 3 41 2 28 2 834
2010-07-23 1 66 0 16 3 158
2010-07-24 0 49 1 24 2 730
2010-07-25 0 44 0 20 2 856
2010-07-26 1 74 0 20 3 201
2010-07-27 0 44 0 18 3 066
2010-07-28 6 60 0 24 2 949
2010-07-29 0 55 0 19 2 833
2010-07-30 0 72 0 22 3 484
2010-07-31 1 37 0 20 2 528
Juin 2010 46 2 137 3 28 109 648
2010-06-01 0 68 0 21 3 537
2010-06-02 1 57 0 17 3 123
2010-06-03 1 75 0 15 4 006
2010-06-04 0 85 0 20 3 645
2010-06-05 0 34 0 20 2 486
2010-06-06 3 30 0 17 2 856
2010-06-07 2 86 0 22 10 278
2010-06-08 0 64 0 18 5 044
2010-06-09 4 159 1 23 4 282
2010-06-10 2 122 0 19 3 974
2010-06-11 2 64 0 23 3 155
2010-06-12 1 20 0 16 3 002
2010-06-13 1 34 0 22 2 837
2010-06-14 1 34 0 25 3 405
2010-06-15 1 74 0 25 3 620
2010-06-16 0 98 0 28 4 159
2010-06-17 1 119 0 23 4 270
2010-06-18 3 81 0 19 3 422
2010-06-19 1 50 0 23 2 451
2010-06-20 1 22 0 19 2 286
2010-06-21 5 64 0 20 2 985
2010-06-22 2 99 1 23 3 730
2010-06-23 2 99 0 23 4 043
2010-06-24 4 128 1 18 4 041
2010-06-25 1 78 0 19 3 593
2010-06-26 0 6 0 15 2 050
2010-06-27 1 31 0 18 2 375
2010-06-28 4 99 0 21 3 892
2010-06-29 0 67 0 20 3 134
2010-06-30 2 90 0 23 3 967
Mai 2010 50 1 497 6 28 99 050
2010-05-01 1 32 0 21 2 421
2010-05-02 3 74 0 19 3 038
2010-05-03 8 104 1 18 3 744
2010-05-04 2 85 3 21 4 178
2010-05-05 0 40 0 17 3 300
2010-05-06 1 42 0 23 2 824
2010-05-07 0 73 0 18 3 255
2010-05-08 1 44 0 15 3 488
2010-05-09 1 41 0 15 3 389
2010-05-10 1 68 0 19 3 933
2010-05-11 1 48 0 22 5 245
2010-05-12 0 29 0 26 3 746
2010-05-13 0 7 0 18 2 614
2010-05-14 2 27 0 20 2 765
2010-05-15 0 19 0 19 2 419
2010-05-16 2 18 0 16 2 298
2010-05-17 0 57 1 15 3 088
2010-05-18 3 32 0 19 2 709
2010-05-19 1 31 0 19 2 946
2010-05-20 1 29 0 25 2 781
2010-05-21 3 39 0 18 2 646
2010-05-22 0 19 0 21 2 436
2010-05-23 2 20 0 20 2 475
2010-05-24 1 27 0 19 2 780
2010-05-25 5 104 0 19 4 022
2010-05-26 3 91 0 18 3 752
2010-05-27 1 50 0 17 3 010
2010-05-28 2 50 0 28 3 237
2010-05-29 1 43 0 20 3 063
2010-05-30 2 50 1 18 2 987
2010-05-31 2 104 0 25 4 461
Avril 2010 45 1 888 3 26 102 219
Mars 2010 53 1 534 2 46 118 201
2010-03-01 2 57 0 30 3 808
2010-03-02 1 43 0 28 3 278
2010-03-03 1 50 0 25 3 337
2010-03-04 1 45 0 29 2 857
2010-03-05 2 45 0 23 2 770
2010-03-06 0 15 1 22 3 117
2010-03-07 3 37 1 27 3 446
2010-03-08 2 103 0 29 4 766
2010-03-09 4 45 0 30 3 965
2010-03-10 1 57 0 29 4 220
2010-03-11 1 71 0 36 4 632
2010-03-12 0 25 0 30 4 266
2010-03-13 4 54 0 32 4 286
2010-03-14 1 46 0 16 4 716
2010-03-15 2 68 0 35 4 863
2010-03-16 0 24 0 29 4 037
2010-03-17 3 52 0 26 4 054
2010-03-18 2 43 0 25 3 982
2010-03-19 0 43 0 46 4 350
2010-03-20 1 24 0 28 3 099
2010-03-21 4 43 0 27 3 413
2010-03-22 6 57 0 19 3 536
2010-03-23 2 73 0 16 3 468
2010-03-24 1 69 0 24 3 359
2010-03-25 1 37 0 19 3 480
2010-03-26 0 40 0 21 3 801
2010-03-27 0 21 0 16 2 808
2010-03-28 2 34 0 17 3 354
2010-03-29 3 83 0 15 4 329
2010-03-30 1 60 0 19 3 857
2010-03-31 2 70 0 21 4 947
Février 2010 65 1 574 4 91 117 274
2010-02-01 0 89 0 38 4 425
2010-02-02 2 76 0 35 3 733
2010-02-03 4 114 1 16 4 361
2010-02-04 0 62 0 42 4 425
2010-02-05 2 55 0 36 3 911
2010-02-06 1 39 0 14 3 117
2010-02-07 3 40 0 27 3 953
2010-02-08 2 89 0 35 4 078
2010-02-09 5 79 0 28 4 799
2010-02-10 4 55 1 27 4 888
2010-02-11 2 88 0 23 4 506
2010-02-12 4 56 0 26 4 178
2010-02-13 1 31 0 27 4 062
2010-02-14 1 36 0 30 4 023
2010-02-15 2 34 0 23 3 907
2010-02-16 4 76 1 18 4 688
2010-02-17 1 17 0 31 3 201
2010-02-18 5 61 1 26 4 183
2010-02-19 4 59 0 36 4 081
2010-02-20 1 40 0 24 3 219
2010-02-21 1 21 0 15 2 977
2010-02-22 1 54 0 28 3 653
2010-02-23 1 57 0 23 4 114
2010-02-24 4 87 0 24 4 415
2010-02-25 2 44 0 19 4 413
2010-02-26 3 57 0 49 4 280
2010-02-27 2 41 0 91 8 619
2010-02-28 3 17 0 36 3 065
Janvier 2010 68 2 076 7 43 118 367
* 2009 752 28 223 96 159 970 278
Décembre 2009 39 2 001 5 54 122 418
Novembre 2009 59 3 138 6 38 117 432
Octobre 2009 67 3 218 11 18 122 232
Septembre 2009 73 2 730 14 159 92 082
2009-09-01 4 68 1 15 2 626
2009-09-02 0 56 0 12 2 372
2009-09-03 2 195 2 15 3 946
2009-09-04 2 190 0 12 4 086
2009-09-05 1 48 1 10 2 054
2009-09-06 4 66 0 9 2 505
2009-09-07 2 88 0 12 2 827
2009-09-08 1 58 0 14 2 613
2009-09-09 3 77 2 159 4 703
2009-09-10 0 114 0 14 3 743
2009-09-11 1 74 0 12 3 640
2009-09-12 2 56 0 10 2 609
2009-09-13 3 93 0 10 3 245
2009-09-14 1 193 1 14 5 003
2009-09-15 4 138 1 12 3 518
2009-09-16 1 122 0 13 3 210
2009-09-17 4 86 2 11 2 944
2009-09-18 2 98 0 11 2 944
2009-09-19 5 104 2 11 2 638
2009-09-20 5 97 0 15 2 994
2009-09-21 3 77 0 12 2 877
2009-09-22 3 56 0 0 2 425
2009-09-23 2 72 0 13 2 559
2009-09-24 1 96 0 12 2 902
2009-09-25 1 54 0 11 2 059
2009-09-26 1 35 0 9 2 795
2009-09-27 2 49 0 13 2 487
2009-09-28 5 85 0 10 2 564
2009-09-29 6 92 0 27 4 187
2009-09-30 2 93 2 12 3 007
Août 2009 47 1 405 8 15 61 919
Juillet 2009 68 1 737 11 21 67 267
2009-07-01 4 69 0 14 2 659
2009-07-02 1 67 0 14 2 889
2009-07-03 3 120 2 13 3 026
2009-07-04 1 34 2 12 1 683
2009-07-05 3 64 0 12 1 809
2009-07-06 1 84 1 13 2 368
2009-07-07 1 48 0 11 1 662
2009-07-08 1 41 0 15 1 638
2009-07-09 1 44 1 10 1 732
2009-07-10 2 66 0 14 2 604
2009-07-11 0 31 0 21 1 808
2009-07-12 3 59 1 13 2 004
2009-07-13 1 32 0 18 2 007
2009-07-14 3 33 0 12 1 611
2009-07-15 0 53 0 13 1 922
2009-07-16 1 60 0 12 1 847
2009-07-17 4 83 1 11 2 287
2009-07-18 5 30 1 9 1 496
2009-07-19 3 31 0 8 1 392
2009-07-20 4 127 2 13 3 012
2009-07-21 1 71 0 10 2 792
2009-07-22 5 65 0 11 2 902
2009-07-23 3 53 0 11 2 311
2009-07-24 2 42 0 12 4 785
2009-07-25 1 24 0 10 1 411
2009-07-26 0 18 0 8 1 221
2009-07-27 7 76 0 11 2 378
2009-07-28 3 67 0 12 2 057
2009-07-29 1 39 0 13 1 662
2009-07-30 2 35 0 8 2 204
2009-07-31 1 71 0 9 2 088
Juin 2009 63 2 759 4 37 72 789
Mai 2009 46 2 166 6 16 66 386
Avril 2009 101 2 850 6 16 73 303
Mars 2009 80 3 538 7 17 83 610
Février 2009 57 1 586 6 16 50 521
2009-02-01 3 79 0 10 1 938
2009-02-02 2 66 0 11 2 491
2009-02-03 2 62 1 13 2 112
2009-02-04 2 48 0 12 1 911
2009-02-05 1 54 0 10 1 840
2009-02-06 0 42 1 9 1 456
2009-02-07 1 13 0 6 1 032
2009-02-08 5 69 1 9 1 650
2009-02-09 3 48 0 10 1 590
2009-02-10 2 56 0 8 1 453
2009-02-11 1 38 1 9 1 697
2009-02-12 2 30 0 8 1 354
2009-02-13 3 52 1 12 1 429
2009-02-14 1 29 0 11 988
2009-02-15 2 41 0 8 1 595
2009-02-16 2 62 0 10 2 271
2009-02-17 1 44 0 10 1 926
2009-02-18 1 62 0 10 2 139
2009-02-19 5 89 0 12 2 304
2009-02-20 1 66 0 12 2 066
2009-02-21 0 41 0 9 1 177
2009-02-22 6 58 0 11 1 838
2009-02-23 2 67 0 10 1 907
2009-02-24 1 64 0 12 2 219
2009-02-25 1 85 0 16 2 446
2009-02-26 2 76 0 12 2 117
2009-02-27 1 82 0 11 2 035
2009-02-28 4 63 1 10 1 540
Janvier 2009 52 1 095 12 10 40 319
* 2008 334 4 655 56 26 234 055
Décembre 2008 36 663 7 12 28 104
Novembre 2008 51 1 090 9 10 35 948
Octobre 2008 50 609 5 10 26 582
Septembre 2008 40 619 5 10 24 365
2008-09-01 0 6 0 7 539
2008-09-02 2 16 0 0 576
2008-09-03 1 13 0 5 857
2008-09-04 1 9 0 6 627
2008-09-05 1 15 0 7 829
2008-09-06 1 7 0 6 671
2008-09-07 1 17 0 4 1 181
2008-09-08 5 29 0 6 1 459
2008-09-09 0 2 0 5 741
2008-09-10 1 9 0 5 540
2008-09-11 0 7 0 6 574
2008-09-12 2 27 0 7 779
2008-09-13 0 11 0 6 602
2008-09-14 0 5 0 6 478
2008-09-15 6 28 1 6 990
2008-09-16 1 15 0 6 639
2008-09-17 0 26 1 7 1 061
2008-09-18 1 14 0 6 720
2008-09-19 1 16 0 6 620
2008-09-20 0 9 0 5 403
2008-09-21 2 17 2 6 630
2008-09-22 0 32 0 7 887
2008-09-23 1 22 0 10 697
2008-09-24 3 54 0 10 1 244
2008-09-25 3 27 0 7 873
2008-09-26 1 23 0 6 770
2008-09-27 0 21 0 8 670
2008-09-28 2 35 0 7 911
2008-09-29 2 57 0 6 1 560
2008-09-30 2 50 1 9 1 237
Août 2008 28 252 6 9 21 916
Juillet 2008 20 256 5 7 16 733
2008-07-01 1 11 0 5 499
2008-07-02 0 6 1 3 428
2008-07-03 1 15 0 7 504
2008-07-04 0 11 0 0 562
2008-07-05 0 3 1 5 416
2008-07-06 2 8 0 4 518
2008-07-07 0 6 0 5 766
2008-07-08 1 7 0 5 391
2008-07-09 2 18 0 5 586
2008-07-10 0 9 0 4 473
2008-07-11 0 5 0 0 440
2008-07-12 0 0 0 3 232
2008-07-13 0 2 0 2 270
2008-07-14 0 2 0 3 291
2008-07-15 2 10 0 4 395
2008-07-16 0 6 0 5 497
2008-07-17 1 12 0 4 772
2008-07-18 0 8 1 5 640
2008-07-19 1 6 0 4 328
2008-07-20 0 4 0 4 336
2008-07-21 1 12 1 5 586
2008-07-22 3 17 0 5 650
2008-07-23 0 9 0 4 678
2008-07-24 2 9 1 5 1 046
2008-07-25 0 2 0 0 497
2008-07-26 0 4 0 5 493
2008-07-27 1 10 0 6 1 290
2008-07-28 1 13 0 4 446
2008-07-29 0 11 0 3 514
2008-07-30 0 12 0 5 698
2008-07-31 1 8 0 0 491
Juin 2008 17 363 6 26 18 903
Mai 2008 17 180 2 10 13 320
2008-05-01 0 2 0 3 298
2008-05-02 0 7 0 3 301
2008-05-03 0 2 0 3 238
2008-05-04 0 2 0 4 802
2008-05-05 1 4 0 3 331
2008-05-06 0 6 0 0 392
2008-05-07 0 2 0 4 358
2008-05-08 0 1 0 2 277
2008-05-09 0 5 1 4 290
2008-05-10 0 2 0 3 288
2008-05-11 1 2 0 2 369
2008-05-12 1 6 0 5 569
2008-05-13 1 10 0 5 595
2008-05-14 0 16 1 4 626
2008-05-15 3 13 0 0 742
2008-05-16 0 7 0 5 526
2008-05-17 1 7 0 5 478
2008-05-18 0 3 0 4 760
2008-05-19 0 4 0 4 495
2008-05-20 1 5 0 3 347
2008-05-21 0 12 0 4 459
2008-05-22 0 4 0 5 505
2008-05-23 0 3 0 3 360
2008-05-24 1 8 0 4 308
2008-05-25 0 5 0 2 261
2008-05-26 0 7 0 3 260
2008-05-27 0 3 0 10 398
2008-05-28 3 8 0 7 411
2008-05-29 0 5 0 5 350
2008-05-30 1 9 0 0 574
2008-05-31 3 10 0 5 352
Avril 2008 16 146 3 8 16 063
Mars 2008 18 158 1 9 12 835
Février 2008 19 155 2 9 9 679
2008-02-01 1 10 0 4 268
2008-02-02 0 7 0 0 349
2008-02-03 0 1 0 5 248
2008-02-04 6 11 0 4 440
2008-02-05 0 11 0 0 497
2008-02-06 0 3 0 5 239
2008-02-07 0 5 0 0 333
2008-02-08 2 3 0 4 257
2008-02-09 0 3 0 5 219
2008-02-10 0 0 0 3 182
2008-02-11 1 8 0 6 281
2008-02-12 0 4 0 4 281
2008-02-13 0 2 0 4 191
2008-02-14 0 4 0 3 211
2008-02-15 0 8 0 5 258
2008-02-16 1 3 0 4 214
2008-02-17 0 8 1 4 460
2008-02-18 2 6 0 4 401
2008-02-19 1 4 0 5 515
2008-02-20 1 7 0 4 467
2008-02-21 1 3 0 5 489
2008-02-22 1 9 0 4 359
2008-02-23 0 2 0 4 179
2008-02-24 1 3 0 3 277
2008-02-25 0 4 0 4 516
2008-02-26 0 12 0 5 456
2008-02-27 0 5 1 5 449
2008-02-28 0 3 0 3 330
2008-02-29 1 6 0 9 313
Janvier 2008 22 164 5 7 9 607
* 2007 276 2 246 55 9 102 999
Décembre 2007 21 167 5 8 17 081
Novembre 2007 20 168 3 6 8 467
Octobre 2007 21 147 4 5 8 193
Septembre 2007 22 183 4 9 9 896
Août 2007 23 226 2 6 9 096
Juillet 2007 18 127 1 4 10 165
Juin 2007 25 309 2 6 13 196
2007-06-01 0 30 0 5 730
2007-06-02 1 3 0 5 231
2007-06-03 0 4 0 4 155
2007-06-04 2 22 0 5 514
2007-06-05 0 19 0 0 547
2007-06-06 1 7 0 5 383
2007-06-07 0 8 1 0 407
2007-06-08 0 6 0 6 413
2007-06-09 2 10 0 3 371
2007-06-10 0 4 1 3 247
2007-06-11 1 6 0 4 306
2007-06-12 2 11 0 3 298
2007-06-13 5 20 0 6 533
2007-06-14 0 11 0 4 388
2007-06-15 2 22 0 0 499
2007-06-16 1 3 0 4 249
2007-06-17 0 2 0 3 349
2007-06-18 0 9 0 5 414
2007-06-19 0 5 0 0 344
2007-06-20 0 10 0 0 450
2007-06-21 2 11 0 4 450
2007-06-22 0 3 0 0 439
2007-06-23 0 6 0 4 447
2007-06-24 2 5 0 3 351
2007-06-25 0 3 0 4 532
2007-06-26 2 16 0 3 751
2007-06-27 0 15 0 4 611
2007-06-28 1 7 0 0 557
2007-06-29 0 21 0 5 717
2007-06-30 1 10 0 0 513
Mai 2007 30 315 8 7 11 830
Avril 2007 44 428 13 9 13 382
Mars 2007 52 176 13 4 1 693
2007-03-08 5 5 1 2 0
2007-03-09 4 10 2 3 0
2007-03-10 0 0 0 1 0
2007-03-11 0 2 0 2 0
2007-03-12 1 5 0 2 0
2007-03-13 18 26 0 2 0
2007-03-14 4 7 0 3 0
2007-03-15 0 1 0 1 0
2007-03-16 0 1 0 2 0
2007-03-17 0 0 0 1 0
2007-03-18 0 0 2 2 0
2007-03-19 1 4 1 2 0
2007-03-20 3 10 2 2 0
2007-03-21 1 3 0 1 0
2007-03-22 1 13 1 3 0
2007-03-23 4 12 1 4 0
2007-03-24 1 2 1 1 0
2007-03-25 0 2 0 2 0
2007-03-26 4 12 1 2 223
2007-03-27 2 30 0 3 507
2007-03-28 0 13 0 3 452
2007-03-29 1 6 0 2 100
2007-03-30 0 3 0 3 131
2007-03-31 2 9 1 3 280